Time;durP1;ratioP1;P1;durP2;ratioP2;P2;SDS_P1;SDS_P2;PMS_P1;PMS_P2;Temp;Humidity;BMP_temperature;BMP_pressure;BME280_temperature;BME280_humidity;BME280_pressure;Samples;Min_cycle;Max_cycle;Signal;HPM_P1;HPM_P2
2023/07/31 00:00:43;;;;;;;8.17;1.97;;;18.80;1.00;;;;;;5043056;28;20906;-83
2023/07/31 00:06:51;;;;;;;2.27;1.53;;;18.70;1.00;;;;;;5037926;28;20456;-84
2023/07/31 00:16:00;;;;;;;9.67;1.70;;;18.60;1.00;;;;;;5052451;28;20482;-83
2023/07/31 00:21:49;;;;;;;5.57;2.07;;;18.50;1.00;;;;;;5048994;28;20190;-84
2023/07/31 00:24:19;;;;;;;3.17;1.40;;;18.50;1.00;;;;;;5049801;28;20497;-78
2023/07/31 00:26:55;;;;;;;12.00;2.27;;;18.50;1.00;;;;;;5052852;28;20426;-77
2023/07/31 00:32:43;;;;;;;5.50;1.80;;;18.40;1.00;;;;;;5044101;28;20424;-78
2023/07/31 00:35:37;;;;;;;5.40;1.73;;;18.40;1.00;;;;;;5053107;28;20940;-78
2023/07/31 00:41:24;;;;;;;7.60;1.80;;;18.50;1.00;;;;;;5052641;28;20849;-84
2023/07/31 00:50:36;;;;;;;5.07;1.90;;;18.20;1.00;;;;;;5042168;28;20435;-84
2023/07/31 00:53:07;;;;;;;2.63;1.67;;;18.20;1.00;;;;;;5045664;28;20463;-79
2023/07/31 00:59:49;;;;;;;10.60;1.63;;;18.20;1.00;;;;;;5051023;28;20512;-78
2023/07/31 01:02:31;;;;;;;5.40;2.03;;;18.20;1.00;;;;;;5053075;28;20420;-78
2023/07/31 01:05:13;;;;;;;2.40;1.20;;;18.20;1.00;;;;;;5052633;28;20434;-78
2023/07/31 01:11:15;;;;;;;11.90;1.97;;;18.20;1.00;;;;;;5052270;28;20401;-84
2023/07/31 01:13:56;;;;;;;2.97;1.70;;;18.10;1.00;;;;;;5051468;28;20570;-84
2023/07/31 01:20:23;;;;;;;4.43;1.70;;;18.20;1.00;;;;;;5048526;28;20465;-83
2023/07/31 01:22:59;;;;;;;8.73;1.60;;;18.30;1.00;;;;;;5041644;28;20425;-83
2023/07/31 01:25:48;;;;;;;2.00;1.70;;;18.30;1.00;;;;;;5051485;28;20507;-78
2023/07/31 01:28:43;;;;;;;5.33;1.97;;;18.40;1.00;;;;;;5053898;28;20486;-78
2023/07/31 01:31:45;;;;;;;5.20;2.10;;;18.40;1.00;;;;;;5049554;28;20447;-78
2023/07/31 01:37:53;;;;;;;4.13;1.80;;;18.40;1.00;;;;;;5048286;28;21041;-78
2023/07/31 01:40:19;;;;;;;5.60;1.73;;;18.50;1.00;;;;;;5044450;28;20387;-77
2023/07/31 01:42:49;;;;;;;4.10;1.73;;;18.50;1.00;;;;;;5056405;28;20499;-77
2023/07/31 01:45:19;;;;;;;3.00;1.53;;;18.50;1.00;;;;;;5055960;28;20176;-79
2023/07/31 01:48:01;;;;;;;6.83;1.97;;;18.50;1.00;;;;;;5055593;28;20409;-78
2023/07/31 01:50:27;;;;;;;6.90;1.70;;;18.50;1.00;;;;;;5055711;28;20506;-78
2023/07/31 01:56:14;;;;;;;1.60;1.37;;;18.60;1.00;;;;;;5051957;28;20715;-84
2023/07/31 01:58:49;;;;;;;4.90;1.70;;;18.60;1.00;;;;;;5056000;28;20422;-84
2023/07/31 02:05:07;;;;;;;5.00;2.20;;;18.70;1.00;;;;;;5044202;28;20413;-83
2023/07/31 02:17:38;;;;;;;6.83;2.10;;;18.80;1.00;;;;;;5040121;28;20383;-83
2023/07/31 02:20:19;;;;;;;3.03;1.33;;;18.80;1.00;;;;;;5048894;28;20543;-83
2023/07/31 02:22:55;;;;;;;3.50;1.97;;;18.90;1.00;;;;;;5041730;28;20646;-84
2023/07/31 02:25:49;;;;;;;3.63;1.80;;;18.80;1.00;;;;;;5054839;28;20757;-83
2023/07/31 02:31:43;;;;;;;3.93;2.20;;;18.90;1.00;;;;;;5052326;28;20409;-83
2023/07/31 02:37:38;;;;;;;4.57;2.10;;;18.80;1.00;;;;;;5055031;28;20467;-84
2023/07/31 02:40:04;;;;;;;3.63;1.63;;;18.90;1.00;;;;;;5054403;28;20418;-84
2023/07/31 02:52:37;;;;;;;3.70;1.93;;;18.90;1.00;;;;;;5048491;28;20448;-83
2023/07/31 02:55:07;;;;;;;8.80;1.97;;;19.00;1.00;;;;;;5043019;28;20475;-84
2023/07/31 02:57:43;;;;;;;10.80;2.13;;;18.90;1.00;;;;;;5052840;28;20441;-84
2023/07/31 03:00:19;;;;;;;3.77;2.10;;;19.00;1.00;;;;;;5034928;28;20513;-84
2023/07/31 03:06:07;;;;;;;2.63;1.63;;;;;;;;;;5041764;28;20405;-85
2023/07/31 03:12:19;;;;;;;7.20;2.10;;;18.80;1.00;;;;;;5048971;28;20467;-85
2023/07/31 03:18:06;;;;;;;4.90;2.00;;;18.80;1.00;;;;;;5046654;28;20428;-84
2023/07/31 03:21:19;;;;;;;3.40;2.13;;;18.70;1.00;;;;;;5049996;28;20411;-84
2023/07/31 03:24:19;;;;;;;5.40;2.40;;;18.70;1.00;;;;;;5053293;28;20175;-83
2023/07/31 03:27:13;;;;;;;7.53;2.33;;;18.60;1.00;;;;;;5034952;28;20434;-85
2023/07/31 03:29:51;;;;;;;5.13;2.30;;;18.40;1.00;;;;;;5033332;28;20476;-85
2023/07/31 03:32:19;;;;;;;18.90;3.40;;;18.30;1.00;;;;;;5038809;28;20436;-84
2023/07/31 03:38:07;;;;;;;6.30;2.63;;;18.30;1.00;;;;;;5050857;28;20410;-84
2023/07/31 03:40:50;;;;;;;4.83;2.60;;;;;;;;;;5044778;28;20425;-89
2023/07/31 03:47:31;;;;;;;4.60;2.30;;;18.20;1.00;;;;;;5045371;28;20892;-89
2023/07/31 03:50:19;;;;;;;5.33;1.90;;;18.20;1.00;;;;;;5047519;28;20426;-89
2023/07/31 03:53:07;;;;;;;6.97;2.30;;;18.20;1.00;;;;;;5053301;28;20924;-89
2023/07/31 03:56:07;;;;;;;6.30;2.23;;;18.20;1.00;;;;;;5053355;28;20465;-89
2023/07/31 03:59:19;;;;;;;4.40;2.30;;;18.20;1.00;;;;;;5067873;28;20437;-88
2023/07/31 04:05:38;;;;;;;17.13;2.40;;;18.20;1.00;;;;;;5054385;28;20447;-89
2023/07/31 04:08:37;;;;;;;8.73;2.13;;;18.10;1.00;;;;;;5048670;28;20779;-90
2023/07/31 04:11:49;;;;;;;6.10;2.40;;;18.10;1.00;;;;;;5048008;28;20437;-84
2023/07/31 04:14:43;;;;;;;6.33;2.20;;;18.00;1.00;;;;;;5037705;28;20449;-85
2023/07/31 04:17:49;;;;;;;8.23;2.57;;;18.00;1.00;;;;;;5046412;28;20441;-84
2023/07/31 04:20:19;;;;;;;5.37;2.33;;;18.00;1.00;;;;;;5050077;28;20451;-85
2023/07/31 04:23:19;;;;;;;8.53;2.90;;;18.10;1.00;;;;;;5052358;28;20429;-83
2023/07/31 04:26:07;;;;;;;4.67;2.13;;;18.00;1.00;;;;;;5047996;28;20421;-84
2023/07/31 04:29:19;;;;;;;6.33;2.00;;;18.00;1.00;;;;;;5034440;28;20402;-85
2023/07/31 04:32:20;;;;;;;8.33;2.40;;;18.00;1.00;;;;;;5048308;28;20396;-84
2023/07/31 04:38:49;;;;;;;8.47;2.47;;;18.10;1.00;;;;;;5047123;28;20448;-84
2023/07/31 04:41:14;;;;;;;4.77;2.10;;;18.20;1.00;;;;;;5053807;28;20385;-84
2023/07/31 04:44:19;;;;;;;3.10;1.90;;;18.20;1.00;;;;;;5048607;28;20466;-84
2023/07/31 04:47:19;;;;;;;4.80;2.23;;;18.20;1.00;;;;;;5051591;28;20183;-83
2023/07/31 04:50:13;;;;;;;3.10;1.70;;;18.30;1.00;;;;;;5040794;28;20407;-83
2023/07/31 04:52:49;;;;;;;4.60;2.13;;;18.40;1.00;;;;;;5048679;28;20422;-84
2023/07/31 04:55:31;;;;;;;8.37;2.20;;;18.40;1.00;;;;;;5051749;28;20899;-84
2023/07/31 04:58:43;;;;;;;8.07;2.77;;;18.40;1.00;;;;;;5045308;28;20797;-90
2023/07/31 05:01:31;;;;;;;8.00;2.50;;;18.50;1.00;;;;;;5052778;28;20408;-90
2023/07/31 05:07:18;;;;;;;5.00;2.20;;;18.60;1.00;;;;;;5047723;28;20930;-88
2023/07/31 05:10:19;;;;;;;8.40;2.20;;;18.60;1.00;;;;;;5073202;28;20426;-88
2023/07/31 05:12:55;;;;;;;6.73;2.50;;;18.70;1.00;;;;;;5050879;28;20225;-87
2023/07/31 05:19:25;;;;;;;6.37;2.30;;;18.80;1.00;;;;;;5037564;28;20394;-88
2023/07/31 05:25:19;;;;;;;5.73;2.00;;;18.80;1.00;;;;;;5053121;28;20797;-88
2023/07/31 05:28:07;;;;;;;7.33;2.57;;;18.80;1.00;;;;;;5052952;28;20508;-88
2023/07/31 05:31:20;;;;;;;6.90;2.10;;;18.80;1.00;;;;;;5070895;28;20404;-89
2023/07/31 05:34:07;;;;;;;3.67;2.07;;;18.80;1.00;;;;;;5038045;28;20426;-91
2023/07/31 05:36:49;;;;;;;15.23;3.43;;;18.80;1.00;;;;;;5050348;28;20523;-89
2023/07/31 05:39:25;;;;;;;9.40;2.07;;;18.90;1.00;;;;;;5055656;28;20441;-90
2023/07/31 05:41:51;;;;;;;6.27;2.10;;;18.90;1.00;;;;;;5050677;28;20779;-87
2023/07/31 05:44:49;;;;;;;6.57;2.10;;;19.10;1.00;;;;;;5044546;28;20516;-87
2023/07/31 05:47:55;;;;;;;8.77;2.07;;;19.00;1.00;;;;;;5049927;28;20188;-86
2023/07/31 05:50:49;;;;;;;4.57;2.47;;;19.00;1.00;;;;;;5038696;28;20408;-87
2023/07/31 05:53:25;;;;;;;5.23;2.00;;;18.90;1.00;;;;;;5035763;28;20761;-88
2023/07/31 05:56:13;;;;;;;7.60;2.20;;;18.90;1.00;;;;;;5051065;28;20994;-88
2023/07/31 05:58:50;;;;;;;5.90;2.50;;;19.10;1.00;;;;;;5044497;28;20423;-87
2023/07/31 06:01:49;;;;;;;5.30;2.10;;;19.10;1.00;;;;;;5049197;28;20837;-88
2023/07/31 06:04:25;;;;;;;8.00;2.40;;;19.20;1.00;;;;;;5040967;28;20415;-88
2023/07/31 06:06:52;;;;;;;9.97;2.33;;;19.30;1.00;;;;;;5054669;28;20417;-87
2023/07/31 06:09:18;;;;;;;8.43;2.70;;;19.40;1.00;;;;;;5055639;28;20463;-88
2023/07/31 06:12:19;;;;;;;2.50;1.63;;;19.40;1.00;;;;;;5056655;28;20429;-88
2023/07/31 06:15:19;;;;;;;12.53;2.43;;;19.60;1.00;;;;;;5050357;28;20215;-87
2023/07/31 06:21:20;;;;;;;5.70;2.90;;;19.50;1.00;;;;;;5052259;28;20444;-88
2023/07/31 06:23:49;;;;;;;7.07;2.13;;;19.50;1.00;;;;;;5037165;28;20529;-89
2023/07/31 06:26:32;;;;;;;4.97;2.30;;;19.60;1.00;;;;;;5035663;28;20438;-88
2023/07/31 06:32:49;;;;;;;13.63;2.60;;;19.60;1.00;;;;;;5035924;28;20460;-88
2023/07/31 06:35:49;;;;;;;17.20;2.70;;;19.80;1.00;;;;;;5050233;28;20459;-88
2023/07/31 06:38:49;;;;;;;4.53;2.30;;;19.80;1.00;;;;;;5051841;28;20457;-88
2023/07/31 06:41:19;;;;;;;5.80;2.23;;;20.00;1.00;;;;;;5041269;28;20415;-89
2023/07/31 06:43:49;;;;;;;6.20;2.47;;;20.10;1.00;;;;;;5045952;28;20436;-89
2023/07/31 06:49:37;;;;;;;6.50;2.27;;;20.00;1.00;;;;;;5055285;28;20457;-88
2023/07/31 06:52:19;;;;;;;7.50;2.37;;;20.00;1.00;;;;;;5045637;28;20431;-89
2023/07/31 06:55:19;;;;;;;6.63;2.33;;;20.10;1.00;;;;;;5052236;28;20271;-88
2023/07/31 06:57:49;;;;;;;4.40;2.10;;;20.30;1.00;;;;;;5033061;28;20431;-89
2023/07/31 07:00:16;;;;;;;6.30;2.13;;;20.30;1.00;;;;;;5044312;28;20431;-89
2023/07/31 07:02:42;;;;;;;3.53;2.00;;;20.40;1.00;;;;;;5050171;28;20523;-89
2023/07/31 07:05:14;;;;;;;8.30;2.33;;;20.40;1.00;;;;;;5052808;28;20451;-89
2023/07/31 07:07:40;;;;;;;4.73;1.67;;;20.60;1.00;;;;;;5046733;28;20443;-88
2023/07/31 07:10:06;;;;;;;3.53;1.90;;;20.60;1.00;;;;;;5044739;28;20969;-88
2023/07/31 07:12:50;;;;;;;4.43;2.20;;;20.50;1.00;;;;;;5036610;28;20434;-90
2023/07/31 07:18:37;;;;;;;7.90;2.13;;;20.20;1.00;;;;;;5047592;28;20449;-90
2023/07/31 07:21:19;;;;;;;4.50;2.33;;;20.30;1.00;;;;;;5053824;28;20506;-90
2023/07/31 07:23:49;;;;;;;5.57;2.30;;;20.30;1.00;;;;;;5041392;28;20180;-90
2023/07/31 07:26:19;;;;;;;4.17;2.40;;;20.40;1.00;;;;;;5070785;28;20893;-90
2023/07/31 07:28:45;;;;;;;8.97;2.87;;;20.50;1.00;;;;;;5056749;28;20431;-89
2023/07/31 07:31:49;;;;;;;4.03;2.47;;;20.80;1.00;;;;;;5042426;28;20439;-90
2023/07/31 07:34:43;;;;;;;5.93;2.50;;;20.90;1.00;;;;;;5045896;28;20189;-90
2023/07/31 07:37:19;;;;;;;5.77;2.37;;;21.00;1.00;;;;;;5036326;28;20435;-90
2023/07/31 07:39:49;;;;;;;4.97;2.63;;;21.40;1.00;;;;;;5051091;28;20424;-90
2023/07/31 07:42:15;;;;;;;6.00;2.43;;;21.40;1.00;;;;;;5053885;28;20487;-88
2023/07/31 07:45:19;;;;;;;5.90;2.13;;;21.50;1.00;;;;;;5051397;28;20766;-89
2023/07/31 07:51:19;;;;;;;6.10;2.30;;;21.60;1.00;;;;;;5054338;28;20416;-88
2023/07/31 07:53:45;;;;;;;5.80;2.20;;;21.80;1.00;;;;;;5046311;28;21035;-87
2023/07/31 07:56:19;;;;;;;5.47;1.93;;;21.80;1.00;;;;;;5052382;28;20549;-88
2023/07/31 08:02:19;;;;;;;2.17;1.87;;;22.40;1.00;;;;;;5049045;28;20499;-87
2023/07/31 08:05:19;;;;;;;4.33;2.23;;;22.20;1.00;;;;;;5048786;28;20457;-87
2023/07/31 08:07:50;;;;;;;7.57;2.30;;;22.20;1.00;;;;;;5045683;28;20438;-87
2023/07/31 08:10:15;;;;;;;3.70;2.10;;;22.30;1.00;;;;;;5052671;28;20440;-88
2023/07/31 08:12:49;;;;;;;8.80;2.53;;;22.20;1.00;;;;;;5049762;28;20428;-90
2023/07/31 08:15:37;;;;;;;6.20;2.33;;;21.90;1.00;;;;;;5052369;28;20575;-90
2023/07/31 08:18:19;;;;;;;3.00;2.23;;;22.00;1.00;;;;;;5034404;28;20906;-90
2023/07/31 08:20:49;;;;;;;5.73;2.33;;;21.80;1.00;;;;;;5039891;28;20435;-90
2023/07/31 08:23:49;;;;;;;5.23;2.30;;;21.70;1.00;;;;;;5053126;28;20444;-90
2023/07/31 08:26:20;;;;;;;6.03;2.27;;;21.50;1.00;;;;;;5052781;28;20430;-90
2023/07/31 08:28:49;;;;;;;3.80;1.93;;;21.40;1.00;;;;;;5049864;28;20432;-88
2023/07/31 08:31:19;;;;;;;8.07;2.23;;;21.40;1.00;;;;;;5052249;28;20942;-89
2023/07/31 08:33:45;;;;;;;5.77;2.07;;;21.50;1.00;;;;;;5053097;28;20406;-89
2023/07/31 08:36:19;;;;;;;4.50;2.70;;;22.00;1.00;;;;;;5053583;28;20479;-89
2023/07/31 08:38:45;;;;;;;4.53;2.00;;;22.00;1.00;;;;;;5056093;28;20182;-88
2023/07/31 08:41:20;;;;;;;5.00;2.47;;;22.10;1.00;;;;;;5037087;28;20438;-88
2023/07/31 08:43:50;;;;;;;3.27;2.17;;;22.40;1.00;;;;;;5044545;28;20919;-89
2023/07/31 08:46:21;;;;;;;3.87;1.90;;;22.70;1.00;;;;;;5070084;28;20427;-89
2023/07/31 08:48:52;;;;;;;9.13;1.87;;;22.70;1.00;;;;;;5036851;28;20406;-92
2023/07/31 08:55:07;;;;;;;2.40;2.00;;;22.40;1.00;;;;;;5044657;28;20544;-92
2023/07/31 08:57:35;;;;;;;9.90;2.03;;;22.90;1.00;;;;;;5064956;28;20410;-86
2023/07/31 09:00:06;;;;;;;4.27;2.10;;;22.90;1.00;;;;;;5043016;28;20422;-85
2023/07/31 09:05:56;;;;;;;5.37;2.10;;;23.10;1.00;;;;;;5057525;28;20388;-87
2023/07/31 09:08:32;;;;;;;8.70;2.67;;;23.10;1.00;;;;;;5068765;28;20782;-87
2023/07/31 09:11:37;;;;;;;4.30;2.10;;;23.20;1.00;;;;;;5054173;28;20450;-86
2023/07/31 09:24:08;;;;;;;4.37;2.20;;;23.80;1.00;;;;;;5053101;28;20436;-86
2023/07/31 09:33:19;;;;;;;3.73;2.27;;;23.30;1.00;;;;;;5031555;28;20440;-87
2023/07/31 09:36:26;;;;;;;8.30;2.03;;;23.30;1.00;;;;;;5059352;28;20498;-87
2023/07/31 09:38:51;;;;;;;6.97;2.17;;;23.60;1.00;;;;;;5046049;28;20436;-88
2023/07/31 09:41:17;;;;;;;4.63;1.90;;;23.70;1.00;;;;;;5040793;28;20452;-87
2023/07/31 09:43:53;;;;;;;4.83;2.00;;;23.60;1.00;;;;;;5041262;28;20327;-93
2023/07/31 09:46:20;;;;;;;6.20;2.33;;;23.70;1.00;;;;;;5046870;28;20182;-92
2023/07/31 09:49:37;;;;;;;6.57;2.40;;;23.50;1.00;;;;;;5051430;28;20434;-92
2023/07/31 09:55:24;;;;;;;6.87;2.10;;;23.40;1.00;;;;;;5044276;28;20463;-93
2023/07/31 10:01:12;;;;;;;10.63;2.63;;;23.60;1.00;;;;;;5051847;28;20327;-93
2023/07/31 10:03:50;;;;;;;4.50;2.30;;;24.20;1.00;;;;;;5051711;28;20436;-92
2023/07/31 10:06:53;;;;;;;3.90;2.30;;;23.90;1.00;;;;;;5052439;28;20443;-89
2023/07/31 10:09:21;;;;;;;9.87;2.57;;;23.80;1.00;;;;;;5051546;28;20447;-94
2023/07/31 10:18:31;;;;;;;7.53;2.43;;;24.50;1.00;;;;;;5053672;28;20488;-91
2023/07/31 10:24:19;;;;;;;7.70;3.13;;;24.90;1.00;;;;;;5053552;28;20485;-93
2023/07/31 10:30:11;;;;;;;5.57;2.90;;;24.90;1.00;;;;;;5036309;28;20442;-87
2023/07/31 10:32:52;;;;;;;5.63;2.40;;;24.50;1.00;;;;;;5042998;28;20419;-88
2023/07/31 10:35:19;;;;;;;7.43;2.77;;;24.30;1.00;;;;;;5053997;28;20472;-87
2023/07/31 10:37:45;;;;;;;5.77;2.90;;;24.30;1.00;;;;;;5048404;28;20441;-88
2023/07/31 10:40:16;;;;;;;3.80;2.00;;;24.50;1.00;;;;;;5045655;28;20428;-88
2023/07/31 10:42:50;;;;;;;5.03;2.30;;;24.50;1.00;;;;;;5047094;28;20444;-88
2023/07/31 10:45:41;;;;;;;7.73;2.70;;;24.80;1.00;;;;;;5049798;28;20433;-93
2023/07/31 10:48:13;;;;;;;19.07;3.63;;;24.80;1.00;;;;;;5038230;28;20445;-94
2023/07/31 10:50:48;;;;;;;5.53;2.30;;;24.70;1.00;;;;;;5062466;28;20474;-94
2023/07/31 10:53:30;;;;;;;5.13;2.63;;;24.90;1.00;;;;;;5054172;28;20419;-92
2023/07/31 10:56:06;;;;;;;4.70;2.80;;;24.80;1.00;;;;;;5040282;28;20496;-92
2023/07/31 10:58:33;;;;;;;10.03;2.40;;;24.70;1.00;;;;;;5048767;28;20421;-92
2023/07/31 11:01:04;;;;;;;6.60;2.60;;;24.60;1.00;;;;;;5052838;28;20443;-89
2023/07/31 11:03:53;;;;;;;6.60;2.17;;;24.90;1.00;;;;;;5050166;28;20444;-88
2023/07/31 11:06:55;;;;;;;10.73;3.07;;;24.80;1.00;;;;;;5055278;28;20422;-88
2023/07/31 11:09:21;;;;;;;7.90;2.60;;;25.30;1.00;;;;;;5040622;28;20450;-89
2023/07/31 11:12:19;;;;;;;5.97;2.40;;;25.50;1.00;;;;;;5053790;28;20450;-90
2023/07/31 11:15:26;;;;;;;4.63;2.77;;;26.00;1.00;;;;;;5050663;28;20191;-93
2023/07/31 11:21:16;;;;;;;7.23;2.30;;;26.60;1.00;;;;;;5044309;28;20405;-93
2023/07/31 11:27:07;;;;;;;4.17;2.50;;;25.80;1.00;;;;;;5051264;28;20437;-94
2023/07/31 11:32:55;;;;;;;10.57;2.90;;;25.80;1.00;;;;;;5036415;28;20392;-90
2023/07/31 11:38:43;;;;;;;4.87;2.10;;;25.80;1.00;;;;;;5054804;28;20430;-91
2023/07/31 11:47:54;;;;;;;6.97;2.43;;;25.40;1.00;;;;;;5054248;28;20432;-90
2023/07/31 11:54:02;;;;;;;2.80;2.03;;;25.50;1.00;;;;;;5034599;28;20451;-91
2023/07/31 11:56:37;;;;;;;6.67;2.40;;;25.30;1.00;;;;;;5040813;28;20451;-91
2023/07/31 12:02:25;;;;;;;4.60;2.47;;;25.50;1.00;;;;;;5051473;28;20417;-87
2023/07/31 12:05:44;;;;;;;3.40;2.27;;;25.40;1.00;;;;;;5063473;28;20422;-86
2023/07/31 12:11:42;;;;;;;3.00;1.97;;;26.50;1.00;;;;;;5047344;28;20428;-87
2023/07/31 12:17:30;;;;;;;7.40;2.40;;;;;;;;;;5040000;28;20782;-87
2023/07/31 12:20:08;;;;;;;3.93;2.57;;;26.40;1.00;;;;;;5043022;28;21000;-94
2023/07/31 12:22:44;;;;;;;3.17;2.23;;;;;;;;;;5050193;28;20433;-86
2023/07/31 12:28:37;;;;;;;5.07;2.13;;;25.70;1.00;;;;;;5036928;28;20454;-88
2023/07/31 12:37:47;;;;;;;3.67;2.33;;;25.10;1.00;;;;;;5050569;28;20423;-88
2023/07/31 12:40:38;;;;;;;6.50;2.83;;;24.80;1.00;;;;;;5032884;28;20937;-87
2023/07/31 12:43:43;;;;;;;9.40;2.63;;;24.50;1.00;;;;;;5039457;28;20203;-87
2023/07/31 12:49:31;;;;;;;5.47;2.27;;;24.60;1.00;;;;;;5039286;28;20403;-75
2023/07/31 12:51:56;;;;;;;6.17;2.20;;;24.40;1.00;;;;;;5047564;28;20421;-75
2023/07/31 12:54:31;;;;;;;8.00;2.60;;;24.50;1.00;;;;;;5045916;28;20218;-76
2023/07/31 12:56:57;;;;;;;4.40;2.70;;;24.50;1.00;;;;;;5049893;28;20463;-75
2023/07/31 12:59:23;;;;;;;4.43;2.53;;;24.70;1.00;;;;;;5046069;28;20813;-75
2023/07/31 13:01:49;;;;;;;6.47;2.50;;;25.30;1.00;;;;;;5044613;28;20187;-76
2023/07/31 13:04:15;;;;;;;3.77;2.37;;;25.40;1.00;;;;;;5046075;28;20190;-76
2023/07/31 13:06:41;;;;;;;6.00;2.80;;;26.00;1.00;;;;;;5051346;28;20445;-77
2023/07/31 13:09:07;;;;;;;9.90;2.20;;;26.50;1.00;;;;;;5051887;28;20427;-77
2023/07/31 13:11:43;;;;;;;5.13;2.10;;;26.80;1.00;;;;;;5052422;28;20445;-76
2023/07/31 13:14:14;;;;;;;4.90;2.20;;;27.20;1.00;;;;;;5057707;28;20574;-76
2023/07/31 13:16:55;;;;;;;5.93;2.00;;;27.20;1.00;;;;;;5047223;28;20791;-77
2023/07/31 13:20:01;;;;;;;3.77;2.30;;;26.80;1.00;;;;;;5039943;28;20856;-79
2023/07/31 13:23:13;;;;;;;4.33;2.50;;;26.80;1.00;;;;;;5033755;28;20405;-78
2023/07/31 13:25:39;;;;;;;4.83;2.47;;;26.80;1.00;;;;;;5053318;28;20530;-80
2023/07/31 13:31:38;;;;;;;1.90;1.80;;;26.40;1.00;;;;;;5048833;28;20207;-77
2023/07/31 13:34:03;;;;;;;3.17;2.10;;;26.30;1.00;;;;;;5043678;28;20443;-75
2023/07/31 13:36:38;;;;;;;4.53;2.10;;;25.90;1.00;;;;;;5049500;28;20464;-75
2023/07/31 13:39:08;;;;;;;6.40;2.70;;;25.60;1.00;;;;;;5054039;28;20181;-75
2023/07/31 13:41:37;;;;;;;3.30;2.53;;;25.30;1.00;;;;;;5055906;28;20413;-76
2023/07/31 13:44:03;;;;;;;2.83;2.30;;;25.30;1.00;;;;;;5048689;28;20419;-75
2023/07/31 13:46:32;;;;;;;5.17;2.20;;;25.30;1.00;;;;;;5053190;28;20845;-75
2023/07/31 13:48:59;;;;;;;5.60;2.50;;;25.50;1.00;;;;;;5044609;28;20421;-75
2023/07/31 13:51:32;;;;;;;3.53;2.30;;;25.70;1.00;;;;;;5053545;28;20552;-75
2023/07/31 13:53:57;;;;;;;4.10;2.23;;;25.40;1.00;;;;;;5052346;28;20521;-76
2023/07/31 13:56:38;;;;;;;5.60;3.10;;;25.60;1.00;;;;;;5050554;28;20555;-75
2023/07/31 13:59:16;;;;;;;1.97;1.70;;;25.60;1.00;;;;;;5050517;28;20193;-76
2023/07/31 14:01:42;;;;;;;5.37;2.30;;;25.30;1.00;;;;;;5047639;28;20431;-75
2023/07/31 14:14:49;;;;;;;3.87;2.27;;;24.30;1.00;;;;;;5046837;28;20412;-78
2023/07/31 14:17:22;;;;;;;2.60;1.93;;;24.00;1.00;;;;;;5049726;28;20594;-77
2023/07/31 14:20:07;;;;;;;8.10;2.47;;;23.80;1.00;;;;;;5051805;28;20506;-76
2023/07/31 14:22:43;;;;;;;5.47;2.50;;;23.50;1.00;;;;;;5043320;28;20429;-76
2023/07/31 14:25:10;;;;;;;4.30;2.40;;;23.60;1.00;;;;;;5048868;28;20934;-76
2023/07/31 14:27:36;;;;;;;4.60;2.20;;;23.40;1.00;;;;;;5054964;28;20423;-75
2023/07/31 14:30:08;;;;;;;6.63;2.70;;;23.30;1.00;;;;;;5052240;28;20432;-74
2023/07/31 14:32:34;;;;;;;3.90;2.20;;;23.20;1.00;;;;;;5052565;28;20431;-75
2023/07/31 14:35:13;;;;;;;4.10;2.40;;;23.20;1.00;;;;;;5050058;28;20428;-74
2023/07/31 14:37:49;;;;;;;5.17;2.33;;;23.10;1.00;;;;;;5051203;28;20538;-76
2023/07/31 14:40:20;;;;;;;7.00;2.90;;;23.10;1.00;;;;;;5050755;28;20964;-75
2023/07/31 14:42:45;;;;;;;2.77;2.13;;;23.10;1.00;;;;;;5053797;28;20426;-75
2023/07/31 14:45:11;;;;;;;7.00;2.27;;;23.00;1.00;;;;;;5053280;28;20394;-75
2023/07/31 14:47:43;;;;;;;5.70;2.60;;;23.00;1.00;;;;;;5054870;28;20535;-76
2023/07/31 14:50:13;;;;;;;7.27;2.93;;;23.30;1.00;;;;;;5049866;28;20224;-75
2023/07/31 14:52:39;;;;;;;5.20;2.97;;;23.50;1.00;;;;;;5043309;28;20436;-73
2023/07/31 14:55:05;;;;;;;7.50;2.23;;;23.50;1.00;;;;;;5053839;28;20786;-74
2023/07/31 14:57:31;;;;;;;5.20;2.10;;;23.70;1.00;;;;;;5042908;28;20268;-74
2023/07/31 14:59:57;;;;;;;3.93;2.23;;;23.80;1.00;;;;;;5053433;28;21060;-75
2023/07/31 15:02:22;;;;;;;7.10;2.70;;;23.90;1.00;;;;;;5053241;28;20524;-75
2023/07/31 15:05:43;;;;;;;8.03;2.70;;;23.70;1.00;;;;;;5053180;28;20646;-78
2023/07/31 15:08:20;;;;;;;4.17;2.37;;;23.50;1.00;;;;;;5055030;28;20193;-79
2023/07/31 15:10:50;;;;;;;5.60;2.13;;;23.50;1.00;;;;;;5050661;28;20431;-78
2023/07/31 15:13:43;;;;;;;6.87;2.47;;;23.50;1.00;;;;;;5054023;28;20888;-79
2023/07/31 15:16:09;;;;;;;11.83;2.27;;;23.30;1.00;;;;;;5054216;28;20546;-82
2023/07/31 15:18:38;;;;;;;5.83;2.13;;;23.30;1.00;;;;;;5048231;28;20441;-75
2023/07/31 15:21:13;;;;;;;2.80;2.23;;;23.10;1.00;;;;;;5050761;28;20255;-75
2023/07/31 15:23:39;;;;;;;4.70;1.70;;;23.00;1.00;;;;;;5045139;28;20466;-76
2023/07/31 15:26:37;;;;;;;4.30;2.00;;;23.00;1.00;;;;;;5045074;28;20435;-75
2023/07/31 15:29:11;;;;;;;4.93;2.17;;;22.90;1.00;;;;;;5034553;28;20185;-76
2023/07/31 15:31:40;;;;;;;1.60;1.50;;;22.90;1.00;;;;;;5050116;28;20433;-75
2023/07/31 15:37:28;;;;;;;2.63;1.60;;;22.70;1.00;;;;;;5050518;28;20446;-81
2023/07/31 15:43:18;;;;;;;2.10;1.70;;;22.60;1.00;;;;;;5038967;28;20211;-80
2023/07/31 15:45:49;;;;;;;6.70;2.10;;;22.50;1.00;;;;;;5047252;28;20448;-86
2023/07/31 15:51:37;;;;;;;5.73;1.80;;;22.40;1.00;;;;;;5046980;28;20930;-87
2023/07/31 15:57:50;;;;;;;4.87;1.50;;;22.30;1.00;;;;;;5047209;28;20205;-93
2023/07/31 16:00:49;;;;;;;1.77;1.40;;;22.30;1.00;;;;;;5065131;28;20428;-92
2023/07/31 16:06:49;;;;;;;3.83;1.43;;;22.30;1.00;;;;;;5052135;28;20441;-79
2023/07/31 16:09:43;;;;;;;4.50;1.23;;;22.10;1.00;;;;;;5054190;28;20924;-79
2023/07/31 16:12:49;;;;;;;2.10;1.50;;;22.10;1.00;;;;;;5050841;28;20431;-82
2023/07/31 16:18:37;;;;;;;2.20;1.60;;;22.00;1.00;;;;;;5052124;28;20544;-92
2023/07/31 16:21:25;;;;;;;2.83;1.33;;;22.00;1.00;;;;;;5053770;28;20424;-91
2023/07/31 16:37:32;;;;;;;7.20;1.30;;;22.20;1.00;;;;;;5053518;28;20476;-88
2023/07/31 16:40:31;;;;;;;5.63;1.40;;;22.30;1.00;;;;;;5049592;28;20415;-93
2023/07/31 16:49:41;;;;;;;2.20;1.57;;;22.20;1.00;;;;;;5052784;28;20406;-93
2023/07/31 16:59:25;;;;;;;5.80;1.80;;;22.50;1.00;;;;;;5054080;28;20418;-90
2023/07/31 17:02:25;;;;;;;8.00;1.60;;;22.30;1.00;;;;;;5053979;28;20410;-91
2023/07/31 17:05:31;;;;;;;4.10;1.50;;;22.10;1.00;;;;;;5055627;28;20462;-90
2023/07/31 17:08:31;;;;;;;3.60;1.77;;;22.30;1.00;;;;;;5056900;28;20433;-91
2023/07/31 17:14:19;;;;;;;6.50;1.67;;;22.10;1.00;;;;;;5051820;28;20428;-87
2023/07/31 17:16:55;;;;;;;3.83;1.80;;;21.80;1.00;;;;;;5050924;28;20454;-90
2023/07/31 17:19:31;;;;;;;5.63;2.00;;;21.70;1.00;;;;;;5042824;28;20266;-88
2023/07/31 17:22:31;;;;;;;6.87;2.13;;;21.60;1.00;;;;;;5050406;28;20876;-87
2023/07/31 17:25:31;;;;;;;2.53;1.90;;;21.40;1.00;;;;;;5050823;28;20425;-88
2023/07/31 17:35:31;;;;;;;2.70;2.00;;;20.90;1.00;;;;;;5045601;28;20490;-96
2023/07/31 17:38:13;;;;;;;2.70;2.00;;;20.80;1.00;;;;;;5037408;28;20433;-91
2023/07/31 17:44:49;;;;;;;8.53;2.23;;;20.60;1.00;;;;;;5050772;28;20435;-79
2023/07/31 17:48:01;;;;;;;4.37;2.40;;;20.50;1.00;;;;;;5054079;28;20430;-80
2023/07/31 17:53:56;;;;;;;7.03;2.90;;;20.40;1.00;;;;;;5042506;28;20422;-80
2023/07/31 17:56:33;;;;;;;3.17;2.80;;;20.30;1.00;;;;;;5052463;28;20485;-80
2023/07/31 17:59:37;;;;;;;4.53;2.20;;;20.20;1.00;;;;;;5055826;28;20489;-80
2023/07/31 18:08:47;;;;;;;3.07;2.40;;;20.10;1.00;;;;;;5053351;28;20422;-91
2023/07/31 18:12:01;;;;;;;6.17;2.40;;;20.00;1.00;;;;;;5043346;28;20462;-88
2023/07/31 18:17:48;;;;;;;4.07;2.30;;;20.00;1.00;;;;;;5037320;28;20442;-95
2023/07/31 18:20:49;;;;;;;9.03;2.60;;;20.00;1.00;;;;;;5060159;28;20456;-81
2023/07/31 18:23:31;;;;;;;4.83;2.17;;;19.90;1.00;;;;;;5054887;28;20192;-79
2023/07/31 18:26:02;;;;;;;16.47;2.60;;;19.90;1.00;;;;;;5055372;28;20440;-79
2023/07/31 18:28:31;;;;;;;5.80;2.37;;;20.00;1.00;;;;;;5055310;28;20473;-79
2023/07/31 18:31:31;;;;;;;4.30;2.10;;;20.00;1.00;;;;;;5055561;28;20415;-79
2023/07/31 18:34:02;;;;;;;11.00;2.50;;;19.90;1.00;;;;;;5044561;28;20451;-79
2023/07/31 18:36:27;;;;;;;4.97;3.07;;;19.80;1.00;;;;;;5055660;28;20462;-89
2023/07/31 18:39:34;;;;;;;5.23;2.37;;;19.80;1.00;;;;;;5049775;28;20423;-88
2023/07/31 18:42:20;;;;;;;4.53;2.33;;;19.90;1.00;;;;;;5048014;28;20181;-88
2023/07/31 18:48:13;;;;;;;7.20;3.10;;;19.80;1.00;;;;;;5035928;28;20398;-88
2023/07/31 18:51:35;;;;;;;4.00;2.50;;;19.80;1.00;;;;;;5034729;28;20964;-79
2023/07/31 18:54:14;;;;;;;7.07;2.50;;;19.80;1.00;;;;;;5040338;28;20410;-79
2023/07/31 18:56:40;;;;;;;4.23;2.83;;;19.70;1.00;;;;;;5055070;28;20465;-79
2023/07/31 18:59:31;;;;;;;7.00;2.90;;;19.70;1.00;;;;;;5048095;28;20414;-78
2023/07/31 19:02:31;;;;;;;7.00;2.90;;;19.70;1.00;;;;;;5054998;28;20812;-79
2023/07/31 19:05:02;;;;;;;9.20;3.00;;;19.70;1.00;;;;;;5058287;28;20426;-79
2023/07/31 19:07:28;;;;;;;6.80;2.70;;;19.70;1.00;;;;;;5047595;28;20407;-87
2023/07/31 19:10:31;;;;;;;5.63;2.50;;;19.70;1.00;;;;;;5048316;28;20423;-87
2023/07/31 19:13:31;;;;;;;5.80;2.93;;;19.70;1.00;;;;;;5052252;28;20213;-87
2023/07/31 19:19:32;;;;;;;8.13;3.00;;;19.60;1.00;;;;;;5048502;28;20402;-87